Time;durP1;ratioP1;P1;durP2;ratioP2;P2;SDS_P1;SDS_P2;PMS_P1;PMS_P2;Temp;Humidity;BMP_temperature;BMP_pressure;BME280_temperature;BME280_humidity;BME280_pressure;Samples;Min_cycle;Max_cycle;Signal;HPM_P1;HPM_P2
2021/07/15 00:02:01;;;;;;;9.98;5.47;;;;;;;;;;5095293;28;20020;-70
2021/07/15 00:04:27;;;;;;;10.90;6.63;;;;;;;;;;5095678;28;20073;-70
2021/07/15 00:06:53;;;;;;;10.85;6.78;;;;;;;;;;5095464;28;20031;-70
2021/07/15 00:09:20;;;;;;;10.35;6.03;;;;;;;;;;5093717;28;20472;-70
2021/07/15 00:11:47;;;;;;;9.05;6.20;;;;;;;;;;5094025;28;20073;-70
2021/07/15 00:14:15;;;;;;;9.13;6.72;;;;;;;;;;5093997;28;20016;-70
2021/07/15 00:16:41;;;;;;;11.57;6.50;;;;;;;;;;5094908;28;20038;-70
2021/07/15 00:19:09;;;;;;;10.57;6.60;;;;;;;;;;5095108;28;20437;-70
2021/07/15 00:22:16;;;;;;;9.63;6.43;;;;;;;;;;5110524;27;20465;-69
2021/07/15 00:24:42;;;;;;;10.63;6.28;;;;;;;;;;5110292;28;20510;-69
2021/07/15 00:27:50;;;;;;;8.27;5.40;;;;;;;;;;5130931;27;20316;-68
2021/07/15 00:30:17;;;;;;;9.10;5.78;;;;;;;;;;5110104;28;20020;-69
2021/07/15 00:32:43;;;;;;;10.23;6.72;;;;;;;;;;5110415;28;20020;-69
2021/07/15 00:35:10;;;;;;;11.38;6.88;;;;;;;;;;5110440;28;20048;-69
2021/07/15 00:37:37;;;;;;;11.40;6.78;;;;;;;;;;5109961;28;20027;-69
2021/07/15 00:40:04;;;;;;;12.88;7.35;;;;;;;;;;5110229;28;20027;-69
2021/07/15 00:42:31;;;;;;;19.48;7.35;;;;;;;;;;5110338;28;20024;-69
2021/07/15 00:44:58;;;;;;;11.68;5.90;;;;;;;;;;5109980;28;20016;-69
2021/07/15 00:47:24;;;;;;;8.45;6.38;;;;;;;;;;5110116;28;20043;-69
2021/07/15 00:49:50;;;;;;;10.40;7.07;;;;;;;;;;5109994;28;20099;-69
2021/07/15 00:52:17;;;;;;;9.73;7.03;;;;;;;;;;5109574;28;20502;-69
2021/07/15 00:54:43;;;;;;;12.25;7.35;;;;;;;;;;5110026;28;20515;-69
2021/07/15 00:57:10;;;;;;;12.15;6.72;;;;;;;;;;5109949;28;20028;-69
2021/07/15 00:59:36;;;;;;;13.93;7.05;;;;;;;;;;5109529;28;20019;-69
2021/07/15 01:02:03;;;;;;;10.95;5.93;;;;;;;;;;5109923;28;20472;-69
2021/07/15 01:04:29;;;;;;;10.68;7.40;;;;;;;;;;5110003;28;20468;-69
2021/07/15 01:06:56;;;;;;;9.70;5.97;;;;;;;;;;5109297;28;20433;-69
2021/07/15 01:09:22;;;;;;;9.07;6.82;;;;;;;;;;5109666;28;20460;-69
2021/07/15 01:12:00;;;;;;;8.48;6.45;;;;;;;;;;5109693;28;20027;-69
2021/07/15 01:14:31;;;;;;;9.07;5.93;;;;;;;;;;5109304;28;20020;-69
2021/07/15 01:17:11;;;;;;;8.57;5.45;;;;;;;;;;5109505;28;20027;-69
2021/07/15 01:20:02;;;;;;;8.63;5.97;;;;;;;;;;5109062;28;20020;-69
2021/07/15 01:22:51;;;;;;;9.57;5.95;;;;;;;;;;5109590;28;20032;-69
2021/07/15 01:25:17;;;;;;;9.93;6.20;;;;;;;;;;5108135;28;20024;-69
2021/07/15 01:28:02;;;;;;;8.52;5.90;;;;;;;;;;5108673;28;20058;-69
2021/07/15 01:30:32;;;;;;;10.70;6.18;;;;;;;;;;5109362;28;20155;-69
2021/07/15 01:33:18;;;;;;;11.52;6.25;;;;;;;;;;5108077;28;20077;-69
2021/07/15 01:36:04;;;;;;;10.55;6.63;;;;;;;;;;5109106;28;20098;-69
2021/07/15 01:38:46;;;;;;;10.85;7.57;;;;;;;;;;5097752;28;20106;-70
2021/07/15 01:41:15;;;;;;;10.88;7.13;;;;;;;;;;5095396;28;20523;-69
2021/07/15 01:43:50;;;;;;;10.65;6.75;;;;;;;;;;5095611;28;20028;-69
2021/07/15 01:46:17;;;;;;;10.80;6.40;;;;;;;;;;5095439;28;20063;-70
2021/07/15 01:48:44;;;;;;;11.25;7.32;;;;;;;;;;5094981;28;20047;-70
2021/07/15 01:51:11;;;;;;;13.40;7.13;;;;;;;;;;5095370;28;20085;-70
2021/07/15 01:53:38;;;;;;;10.88;6.45;;;;;;;;;;5095326;28;20016;-69
2021/07/15 01:56:05;;;;;;;12.00;7.57;;;;;;;;;;5094859;28;20436;-69
2021/07/15 01:58:33;;;;;;;12.13;6.68;;;;;;;;;;5095195;28;20031;-69
2021/07/15 02:01:01;;;;;;;13.70;7.32;;;;;;;;;;5094099;28;20388;-69
2021/07/15 02:03:28;;;;;;;12.75;6.88;;;;;;;;;;5094801;28;20073;-69
2021/07/15 02:05:56;;;;;;;10.32;6.88;;;;;;;;;;5095038;28;20031;-69
2021/07/15 02:08:22;;;;;;;11.23;7.32;;;;;;;;;;5094677;28;20028;-69
2021/07/15 02:10:49;;;;;;;11.50;6.65;;;;;;;;;;5094990;28;20036;-70
2021/07/15 02:13:15;;;;;;;12.43;7.22;;;;;;;;;;5094996;28;20044;-69
2021/07/15 02:17:39;;;;;;;10.05;6.38;;;;;;;;;;5110036;27;20867;-68
2021/07/15 02:20:07;;;;;;;11.50;7.80;;;;;;;;;;5110597;28;20058;-70
2021/07/15 02:22:34;;;;;;;9.80;6.40;;;;;;;;;;5110252;28;20531;-69
2021/07/15 02:25:01;;;;;;;9.48;6.55;;;;;;;;;;5110411;28;20102;-69
2021/07/15 02:27:27;;;;;;;12.15;6.55;;;;;;;;;;5110368;28;20052;-70
2021/07/15 02:29:53;;;;;;;10.15;6.22;;;;;;;;;;5109981;28;20040;-69
2021/07/15 02:32:19;;;;;;;11.93;6.38;;;;;;;;;;5110214;28;20034;-69
2021/07/15 02:34:52;;;;;;;12.10;6.63;;;;;;;;;;5110172;28;20074;-69
2021/07/15 02:37:20;;;;;;;11.73;7.00;;;;;;;;;;5109652;28;20028;-69
2021/07/15 02:39:47;;;;;;;11.35;7.72;;;;;;;;;;5110098;28;20024;-70
2021/07/15 02:42:13;;;;;;;9.88;6.63;;;;;;;;;;5110299;28;20028;-70
2021/07/15 02:44:40;;;;;;;11.02;6.55;;;;;;;;;;5109680;28;20047;-69
2021/07/15 02:47:09;;;;;;;11.60;7.85;;;;;;;;;;5109964;28;20020;-69
2021/07/15 02:49:38;;;;;;;11.48;6.72;;;;;;;;;;5109917;28;20019;-69
2021/07/15 02:52:04;;;;;;;10.25;7.13;;;;;;;;;;5109402;28;20044;-69
2021/07/15 02:54:30;;;;;;;9.18;6.35;;;;;;;;;;5109847;28;20055;-69
2021/07/15 02:57:10;;;;;;;14.05;7.13;;;;;;;;;;5108359;28;20119;-69
2021/07/15 02:59:46;;;;;;;15.60;7.57;;;;;;;;;;5108019;28;20027;-69
2021/07/15 03:02:25;;;;;;;12.43;6.57;;;;;;;;;;5108729;28;20103;-69
2021/07/15 03:05:00;;;;;;;9.90;6.70;;;;;;;;;;5108048;28;20650;-69
2021/07/15 03:07:28;;;;;;;12.93;6.93;;;;;;;;;;5109623;28;20042;-69
2021/07/15 03:09:55;;;;;;;10.73;7.15;;;;;;;;;;5109839;28;20023;-69
2021/07/15 03:12:23;;;;;;;10.52;6.78;;;;;;;;;;5109084;28;20016;-69
2021/07/15 03:14:50;;;;;;;10.38;6.88;;;;;;;;;;5108154;28;20023;-69
2021/07/15 03:17:18;;;;;;;9.65;6.28;;;;;;;;;;5109183;28;20097;-69
2021/07/15 03:19:46;;;;;;;11.68;7.90;;;;;;;;;;5107641;28;20027;-69
2021/07/15 03:22:13;;;;;;;9.02;6.45;;;;;;;;;;5109556;28;20024;-69
2021/07/15 03:24:42;;;;;;;10.40;6.25;;;;;;;;;;5109717;28;20073;-69
2021/07/15 03:27:09;;;;;;;15.43;7.72;;;;;;;;;;5105026;28;20044;-69
2021/07/15 03:29:37;;;;;;;9.48;7.15;;;;;;;;;;5094329;28;20031;-69
2021/07/15 03:32:04;;;;;;;10.07;6.85;;;;;;;;;;5095577;28;20103;-69
2021/07/15 03:34:31;;;;;;;13.68;6.97;;;;;;;;;;5095113;28;20461;-69
2021/07/15 03:38:16;;;;;;;11.02;6.40;;;;;;;;;;5069934;28;20406;-68
2021/07/15 03:40:42;;;;;;;14.07;5.72;;;;;;;;;;5068179;28;20029;-68
2021/07/15 03:43:09;;;;;;;10.50;6.50;;;;;;;;;;5069989;28;20029;-68
2021/07/15 03:45:35;;;;;;;12.00;6.53;;;;;;;;;;5068770;28;20020;-68
2021/07/15 03:48:02;;;;;;;10.75;6.90;;;;;;;;;;5069364;28;20496;-68
2021/07/15 03:51:38;;;;;;;9.15;6.43;;;;;;;;;;5110442;27;20389;-68
2021/07/15 03:54:04;;;;;;;11.63;7.20;;;;;;;;;;5110166;28;20065;-68
2021/07/15 03:56:31;;;;;;;12.02;7.32;;;;;;;;;;5110353;28;20073;-69
2021/07/15 03:59:00;;;;;;;12.05;6.50;;;;;;;;;;5110378;28;20015;-69
2021/07/15 04:01:28;;;;;;;17.15;7.38;;;;;;;;;;5109899;28;20027;-71
2021/07/15 04:03:55;;;;;;;12.25;6.72;;;;;;;;;;5110504;28;20027;-71
2021/07/15 04:06:23;;;;;;;12.93;6.97;;;;;;;;;;5110485;28;20051;-69
2021/07/15 04:08:49;;;;;;;13.05;8.60;;;;;;;;;;5108576;28;20024;-70
2021/07/15 04:11:16;;;;;;;13.15;7.75;;;;;;;;;;5110104;28;20148;-69
2021/07/15 04:13:44;;;;;;;13.48;7.53;;;;;;;;;;5110080;28;20020;-69
2021/07/15 04:16:36;;;;;;;13.48;9.18;;;;;;;;;;5109808;28;20038;-69
2021/07/15 04:19:04;;;;;;;9.17;6.80;;;;;;;;;;5107276;28;20043;-70
2021/07/15 04:21:31;;;;;;;9.65;6.68;;;;;;;;;;5110023;28;20028;-70
2021/07/15 04:23:58;;;;;;;14.57;7.68;;;;;;;;;;5109693;28;20032;-71
2021/07/15 04:26:24;;;;;;;10.07;6.80;;;;;;;;;;5109952;28;20024;-70
2021/07/15 04:28:51;;;;;;;17.45;8.35;;;;;;;;;;5109791;28;20035;-69
2021/07/15 04:31:36;;;;;;;13.45;7.95;;;;;;;;;;5109315;28;20028;-69
2021/07/15 04:35:15;;;;;;;14.05;7.15;;;;;;;;;;5110623;27;20412;-68
2021/07/15 04:37:42;;;;;;;8.73;6.18;;;;;;;;;;5108710;28;20118;-69
2021/07/15 04:40:10;;;;;;;9.75;7.13;;;;;;;;;;5110409;28;20028;-69
2021/07/15 04:42:38;;;;;;;11.30;7.22;;;;;;;;;;5110317;28;20472;-69
2021/07/15 04:45:04;;;;;;;10.88;6.95;;;;;;;;;;5110077;28;20016;-69
2021/07/15 04:47:30;;;;;;;10.63;6.10;;;;;;;;;;5110381;28;20024;-69
2021/07/15 04:49:57;;;;;;;9.93;6.65;;;;;;;;;;5110239;28;20091;-69
2021/07/15 04:52:24;;;;;;;12.95;7.07;;;;;;;;;;5108512;28;20073;-69
2021/07/15 04:54:51;;;;;;;9.18;7.07;;;;;;;;;;5108717;28;20080;-69
2021/07/15 04:57:17;;;;;;;10.20;6.72;;;;;;;;;;5108721;28;20054;-69
2021/07/15 04:59:44;;;;;;;9.02;6.40;;;;;;;;;;5110205;28;20024;-69
2021/07/15 05:02:10;;;;;;;9.55;6.47;;;;;;;;;;5110034;28;20019;-67
2021/07/15 05:04:37;;;;;;;8.88;6.30;;;;;;;;;;5108419;28;20028;-67
2021/07/15 05:07:04;;;;;;;12.95;7.03;;;;;;;;;;5110069;28;20024;-67
2021/07/15 05:09:30;;;;;;;12.88;6.65;;;;;;;;;;5109926;28;20125;-69
2021/07/15 05:11:56;;;;;;;11.27;6.28;;;;;;;;;;5109467;28;20472;-68
2021/07/15 05:14:22;;;;;;;11.88;7.30;;;;;;;;;;5109352;28;20063;-67
2021/07/15 05:16:49;;;;;;;8.80;6.32;;;;;;;;;;5109744;28;20526;-69
2021/07/15 05:19:15;;;;;;;10.32;7.03;;;;;;;;;;5102096;28;20024;-69
2021/07/15 05:21:41;;;;;;;12.80;8.13;;;;;;;;;;5116345;28;20371;-68
2021/07/15 05:24:07;;;;;;;12.35;7.47;;;;;;;;;;5129825;28;20387;-69
2021/07/15 05:26:34;;;;;;;10.48;7.10;;;;;;;;;;5129818;28;20399;-69
2021/07/15 05:29:00;;;;;;;13.50;8.90;;;;;;;;;;5129847;28;20395;-69
2021/07/15 05:31:26;;;;;;;10.55;6.75;;;;;;;;;;5129634;28;20015;-68
2021/07/15 05:33:53;;;;;;;16.90;7.43;;;;;;;;;;5129336;28;20048;-70
2021/07/15 05:36:19;;;;;;;10.80;6.78;;;;;;;;;;5129615;28;20057;-69
2021/07/15 05:38:45;;;;;;;9.68;6.45;;;;;;;;;;5129467;28;20023;-69
2021/07/15 05:43:17;;;;;;;13.73;7.68;;;;;;;;;;5110508;27;20424;-70
2021/07/15 05:45:43;;;;;;;15.35;8.88;;;;;;;;;;5109037;28;20035;-70
2021/07/15 05:48:10;;;;;;;13.05;8.80;;;;;;;;;;5108284;28;20031;-71
2021/07/15 05:50:36;;;;;;;12.65;8.65;;;;;;;;;;5108415;28;20375;-69
2021/07/15 05:53:02;;;;;;;12.65;7.65;;;;;;;;;;5107016;28;20020;-71
2021/07/15 05:55:28;;;;;;;16.45;8.15;;;;;;;;;;5107976;28;20024;-71
2021/07/15 05:57:54;;;;;;;12.13;9.23;;;;;;;;;;5108377;28;20042;-69
2021/07/15 06:00:21;;;;;;;17.25;8.50;;;;;;;;;;5109228;28;20031;-69
2021/07/15 06:02:47;;;;;;;13.48;8.70;;;;;;;;;;5109600;28;20035;-66
2021/07/15 06:05:13;;;;;;;12.07;8.05;;;;;;;;;;5108182;28;20031;-67
2021/07/15 06:07:39;;;;;;;17.38;9.32;;;;;;;;;;5109139;28;20353;-66
2021/07/15 06:10:07;;;;;;;11.80;8.65;;;;;;;;;;5108594;28;20024;-66
2021/07/15 06:12:33;;;;;;;13.10;8.70;;;;;;;;;;5109821;28;20027;-67
2021/07/15 06:14:59;;;;;;;16.23;9.25;;;;;;;;;;5109120;28;20019;-66
2021/07/15 06:17:25;;;;;;;13.27;8.43;;;;;;;;;;5109343;28;20031;-66
2021/07/15 06:19:53;;;;;;;17.02;8.40;;;;;;;;;;5106695;28;20023;-67
2021/07/15 06:22:20;;;;;;;10.80;7.78;;;;;;;;;;5107367;28;20506;-66
2021/07/15 06:24:46;;;;;;;14.77;8.02;;;;;;;;;;5108068;28;20019;-66
2021/07/15 06:27:12;;;;;;;12.15;8.52;;;;;;;;;;5107043;28;20431;-67
2021/07/15 06:29:39;;;;;;;13.85;8.05;;;;;;;;;;5107786;28;20024;-67
2021/07/15 06:32:05;;;;;;;16.30;8.95;;;;;;;;;;5108875;28;20484;-66
2021/07/15 06:34:31;;;;;;;15.38;7.93;;;;;;;;;;5109362;28;20050;-67
2021/07/15 06:36:57;;;;;;;12.60;7.97;;;;;;;;;;5109075;28;20028;-66
2021/07/15 06:39:23;;;;;;;12.50;7.75;;;;;;;;;;5109295;28;20034;-67
2021/07/15 06:41:50;;;;;;;17.33;8.88;;;;;;;;;;5109229;28;20082;-65
2021/07/15 06:44:17;;;;;;;10.25;7.75;;;;;;;;;;5108919;28;20031;-66
2021/07/15 06:46:43;;;;;;;12.25;8.40;;;;;;;;;;5109489;28;20024;-66
2021/07/15 06:49:09;;;;;;;14.02;8.50;;;;;;;;;;5108059;28;20031;-67
2021/07/15 06:51:35;;;;;;;11.07;7.25;;;;;;;;;;5108812;28;20103;-67
2021/07/15 06:54:02;;;;;;;13.75;8.15;;;;;;;;;;5098910;28;20016;-68
2021/07/15 06:56:28;;;;;;;11.55;7.90;;;;;;;;;;5094009;28;20031;-66
2021/07/15 06:58:54;;;;;;;12.38;7.43;;;;;;;;;;5093693;28;20020;-68
2021/07/15 07:01:21;;;;;;;13.15;8.30;;;;;;;;;;5094128;28;20028;-66
2021/07/15 07:03:47;;;;;;;14.57;7.50;;;;;;;;;;5095591;28;20051;-68
2021/07/15 07:06:13;;;;;;;9.63;6.70;;;;;;;;;;5095224;28;20133;-68
2021/07/15 07:08:39;;;;;;;9.68;6.97;;;;;;;;;;5092552;28;20056;-68
2021/07/15 07:11:05;;;;;;;9.77;6.70;;;;;;;;;;5092910;28;20020;-70
2021/07/15 07:13:31;;;;;;;12.13;7.25;;;;;;;;;;5093217;28;20024;-68
2021/07/15 07:15:57;;;;;;;9.10;7.05;;;;;;;;;;5091914;28;20035;-69
2021/07/15 07:18:24;;;;;;;11.23;6.78;;;;;;;;;;5092868;28;20042;-69
2021/07/15 07:20:50;;;;;;;10.30;7.15;;;;;;;;;;5093381;28;20468;-69
2021/07/15 07:23:17;;;;;;;10.80;6.57;;;;;;;;;;5094438;28;20107;-69
2021/07/15 07:25:44;;;;;;;11.77;7.40;;;;;;;;;;5094899;28;20023;-69
2021/07/15 07:28:10;;;;;;;9.77;6.32;;;;;;;;;;5095039;28;20031;-69
2021/07/15 07:30:36;;;;;;;13.98;7.32;;;;;;;;;;5093594;28;20051;-69
2021/07/15 07:33:03;;;;;;;10.35;6.70;;;;;;;;;;5093117;28;20476;-69
2021/07/15 07:35:29;;;;;;;10.10;7.15;;;;;;;;;;5094731;28;20117;-69
2021/07/15 07:37:57;;;;;;;9.13;6.72;;;;;;;;;;5092501;28;20091;-68
2021/07/15 07:40:23;;;;;;;9.35;7.13;;;;;;;;;;5106327;28;20516;-69
2021/07/15 07:42:49;;;;;;;9.07;7.03;;;;;;;;;;5113170;28;20051;-70
2021/07/15 07:45:16;;;;;;;13.15;7.25;;;;;;;;;;5115007;28;20020;-69
2021/07/15 07:47:42;;;;;;;14.32;7.25;;;;;;;;;;5114652;28;20086;-69
2021/07/15 07:50:09;;;;;;;8.73;6.28;;;;;;;;;;5113418;28;20076;-69
2021/07/15 07:52:36;;;;;;;11.73;7.28;;;;;;;;;;5114804;28;20675;-69
2021/07/15 07:55:03;;;;;;;11.63;7.10;;;;;;;;;;5113411;28;20039;-69
2021/07/15 07:57:33;;;;;;;10.60;7.20;;;;;;;;;;5112131;28;20020;-69
2021/07/15 07:59:59;;;;;;;10.65;6.97;;;;;;;;;;5113039;28;20032;-69
2021/07/15 08:02:26;;;;;;;9.23;6.22;;;;;;;;;;5113743;28;20388;-69
2021/07/15 08:04:52;;;;;;;9.63;6.90;;;;;;;;;;5113379;28;20098;-68
2021/07/15 08:07:18;;;;;;;9.38;6.85;;;;;;;;;;5114247;28;20100;-68
2021/07/15 08:09:46;;;;;;;12.32;6.95;;;;;;;;;;5114210;28;20387;-68
2021/07/15 08:12:16;;;;;;;10.88;7.50;;;;;;;;;;5110286;28;20028;-68
2021/07/15 08:14:43;;;;;;;12.02;7.15;;;;;;;;;;5093483;28;20023;-68
2021/07/15 08:17:09;;;;;;;10.95;6.45;;;;;;;;;;5093509;28;20527;-67
2021/07/15 08:19:36;;;;;;;8.88;6.75;;;;;;;;;;5093402;28;20499;-67
2021/07/15 08:22:02;;;;;;;13.38;7.70;;;;;;;;;;5092927;28;20036;-68
2021/07/15 08:24:28;;;;;;;9.18;6.78;;;;;;;;;;5092380;28;20016;-67
2021/07/15 08:26:54;;;;;;;10.15;7.25;;;;;;;;;;5092674;28;20498;-67
2021/07/15 08:29:21;;;;;;;9.55;7.05;;;;;;;;;;5092110;28;20028;-66
2021/07/15 08:31:47;;;;;;;9.05;6.47;;;;;;;;;;5093166;28;20235;-66
2021/07/15 08:34:13;;;;;;;18.40;6.50;;;;;;;;;;5093595;28;20020;-67
2021/07/15 08:36:39;;;;;;;10.27;7.50;;;;;;;;;;5093520;28;20425;-66
2021/07/15 08:39:09;;;;;;;9.90;6.30;;;;;;;;;;5082327;28;20039;-67
2021/07/15 08:41:36;;;;;;;8.90;6.40;;;;;;;;;;5093026;28;20040;-66
2021/07/15 08:44:03;;;;;;;8.85;6.35;;;;;;;;;;5092912;28;20027;-67
2021/07/15 08:46:30;;;;;;;8.85;7.13;;;;;;;;;;5093527;28;20024;-65
2021/07/15 08:48:57;;;;;;;8.85;7.00;;;;;;;;;;5091995;28;20451;-66
2021/07/15 08:51:24;;;;;;;8.57;6.28;;;;;;;;;;5092803;28;20538;-67
2021/07/15 08:53:50;;;;;;;9.40;7.00;;;;;;;;;;5093123;28;20082;-66
2021/07/15 08:59:01;;;;;;;8.88;7.00;;;;;;;;;;5091538;28;20063;-67
2021/07/15 09:01:33;;;;;;;12.27;7.13;;;;;;;;;;5092821;28;20035;-68
2021/07/15 09:04:00;;;;;;;8.35;6.40;;;;;;;;;;5091245;28;20070;-67
2021/07/15 09:06:27;;;;;;;9.75;7.22;;;;;;;;;;5092413;28;20016;-68
2021/07/15 09:08:53;;;;;;;13.55;6.90;;;;;;;;;;5091906;28;20024;-68
2021/07/15 09:11:20;;;;;;;14.35;7.05;;;;;;;;;;5090374;28;20028;-68
2021/07/15 09:13:46;;;;;;;8.65;6.38;;;;;;;;;;5090248;28;20016;-67
2021/07/15 09:16:13;;;;;;;9.82;6.75;;;;;;;;;;5090567;28;20400;-68
2021/07/15 09:18:58;;;;;;;9.18;6.43;;;;;;;;;;5089278;28;20464;-68
2021/07/15 09:21:25;;;;;;;10.15;6.95;;;;;;;;;;5092542;28;20506;-67
2021/07/15 09:23:51;;;;;;;8.18;5.70;;;;;;;;;;5092332;28;20044;-67
2021/07/15 09:26:17;;;;;;;11.50;6.47;;;;;;;;;;5092197;28;20023;-67
2021/07/15 09:28:43;;;;;;;9.10;6.35;;;;;;;;;;5091942;28;20028;-67
2021/07/15 09:31:14;;;;;;;9.07;6.72;;;;;;;;;;5092799;28;20023;-70
2021/07/15 09:33:40;;;;;;;10.27;6.15;;;;;;;;;;5092305;28;20031;-67
2021/07/15 09:36:12;;;;;;;9.98;5.95;;;;;;;;;;5092589;28;20070;-68
2021/07/15 09:38:41;;;;;;;9.20;5.63;;;;;;;;;;5091945;28;20106;-67
2021/07/15 09:41:08;;;;;;;9.30;6.40;;;;;;;;;;5089768;28;20073;-67
2021/07/15 09:43:34;;;;;;;11.77;6.43;;;;;;;;;;5091554;28;20032;-67
2021/07/15 09:46:12;;;;;;;9.38;6.78;;;;;;;;;;5092003;28;20048;-67
2021/07/15 09:48:39;;;;;;;11.73;7.35;;;;;;;;;;5091256;28;20670;-68
2021/07/15 09:51:08;;;;;;;9.00;6.28;;;;;;;;;;5092404;28;20024;-67
2021/07/15 09:53:34;;;;;;;10.63;6.25;;;;;;;;;;5092021;28;20049;-68
2021/07/15 09:56:00;;;;;;;10.35;6.28;;;;;;;;;;5091699;28;20073;-68
2021/07/15 09:58:31;;;;;;;9.05;6.15;;;;;;;;;;5091370;28;20540;-68
2021/07/15 10:01:04;;;;;;;11.60;6.20;;;;;;;;;;5090503;28;20031;-69
2021/07/15 10:03:34;;;;;;;8.80;5.72;;;;;;;;;;5089706;28;20579;-67
2021/07/15 10:06:02;;;;;;;7.68;5.55;;;;;;;;;;5090978;28;20031;-67
2021/07/15 10:08:30;;;;;;;11.57;6.88;;;;;;;;;;5091664;28;20024;-67
2021/07/15 10:11:16;;;;;;;10.75;5.60;;;;;;;;;;5090519;28;20069;-68
2021/07/15 10:13:43;;;;;;;8.00;5.97;;;;;;;;;;5090396;28;20054;-68
2021/07/15 10:16:10;;;;;;;8.93;5.45;;;;;;;;;;5090970;28;20024;-67
2021/07/15 10:18:45;;;;;;;9.75;5.35;;;;;;;;;;5092089;28;20031;-68
2021/07/15 10:21:13;;;;;;;8.27;5.78;;;;;;;;;;5091839;28;20020;-68
2021/07/15 10:23:39;;;;;;;12.80;6.70;;;;;;;;;;5090662;28;20081;-68
2021/07/15 10:26:08;;;;;;;10.23;6.35;;;;;;;;;;5091858;28;20031;-67
2021/07/15 10:28:35;;;;;;;10.77;5.68;;;;;;;;;;5091487;28;20020;-69
2021/07/15 10:31:03;;;;;;;8.43;5.90;;;;;;;;;;5095875;28;20024;-67
2021/07/15 10:33:29;;;;;;;8.63;5.78;;;;;;;;;;5095588;28;20023;-68
2021/07/15 10:35:57;;;;;;;8.88;6.32;;;;;;;;;;5095339;28;20480;-68
2021/07/15 10:38:23;;;;;;;12.18;6.63;;;;;;;;;;5095764;28;20012;-68
2021/07/15 10:40:50;;;;;;;8.60;6.18;;;;;;;;;;5095762;28;20028;-69
2021/07/15 10:43:17;;;;;;;8.50;6.20;;;;;;;;;;5095119;28;20044;-69
2021/07/15 10:45:43;;;;;;;8.07;5.72;;;;;;;;;;5094789;28;20012;-68
2021/07/15 10:48:10;;;;;;;11.95;6.38;;;;;;;;;;5092836;28;20031;-68
2021/07/15 10:50:36;;;;;;;10.48;5.68;;;;;;;;;;5095151;28;20017;-69
2021/07/15 10:53:04;;;;;;;8.55;5.95;;;;;;;;;;5094785;28;20025;-69
2021/07/15 10:55:30;;;;;;;8.73;5.68;;;;;;;;;;5092427;28;20539;-69
2021/07/15 10:57:56;;;;;;;11.82;6.90;;;;;;;;;;5090955;28;20487;-69
2021/07/15 11:00:27;;;;;;;12.50;6.40;;;;;;;;;;5094739;28;20491;-69
2021/07/15 11:03:12;;;;;;;9.35;6.00;;;;;;;;;;5095396;28;20110;-68
2021/07/15 11:05:54;;;;;;;9.93;5.53;;;;;;;;;;5095529;28;20024;-69
2021/07/15 11:08:40;;;;;;;8.95;6.00;;;;;;;;;;5095402;28;20033;-69
2021/07/15 11:11:07;;;;;;;8.07;6.00;;;;;;;;;;5093986;28;20099;-69
2021/07/15 11:13:34;;;;;;;9.38;5.22;;;;;;;;;;5093376;28;20062;-69
2021/07/15 11:16:03;;;;;;;10.40;6.32;;;;;;;;;;5093460;28;20016;-70
2021/07/15 11:18:46;;;;;;;8.07;5.57;;;;;;;;;;5091632;28;20024;-69
2021/07/15 11:21:27;;;;;;;8.15;5.65;;;;;;;;;;5093365;28;20395;-70
2021/07/15 11:24:06;;;;;;;8.70;5.53;;;;;;;;;;5091799;28;20028;-70
2021/07/15 11:26:33;;;;;;;11.65;6.05;;;;;;;;;;5112203;28;20027;-71
2021/07/15 11:29:00;;;;;;;9.23;6.05;;;;;;;;;;5111364;28;20028;-70
2021/07/15 11:31:52;;;;;;;10.00;6.28;;;;;;;;;;5110463;28;20051;-70
2021/07/15 11:34:38;;;;;;;7.82;5.82;;;;;;;;;;5115826;27;20032;-69
2021/07/15 11:37:23;;;;;;;9.68;6.10;;;;;;;;;;5115054;28;20114;-68
2021/07/15 11:39:49;;;;;;;7.47;5.25;;;;;;;;;;5114542;28;20023;-71
2021/07/15 11:42:19;;;;;;;10.52;6.43;;;;;;;;;;5114772;28;20395;-70
2021/07/15 11:44:59;;;;;;;10.13;6.25;;;;;;;;;;5115041;28;20023;-70
2021/07/15 11:47:43;;;;;;;10.00;5.82;;;;;;;;;;5114732;28;20430;-70
2021/07/15 11:50:29;;;;;;;8.68;5.93;;;;;;;;;;5114912;28;20371;-70
2021/07/15 11:53:15;;;;;;;8.75;6.20;;;;;;;;;;5113089;28;20027;-70
2021/07/15 11:55:41;;;;;;;9.63;6.07;;;;;;;;;;5113431;28;20023;-71
2021/07/15 11:58:07;;;;;;;10.02;6.15;;;;;;;;;;5114668;28;20437;-69
2021/07/15 12:00:34;;;;;;;9.30;5.88;;;;;;;;;;5114258;28;20026;-69
2021/07/15 12:03:00;;;;;;;8.15;5.72;;;;;;;;;;5112843;28;20064;-68
2021/07/15 12:05:34;;;;;;;9.93;6.13;;;;;;;;;;5113191;28;20103;-70
2021/07/15 12:08:14;;;;;;;8.45;5.53;;;;;;;;;;5114169;28;20026;-69
2021/07/15 12:10:44;;;;;;;9.77;6.18;;;;;;;;;;5114437;28;20472;-71
2021/07/15 12:13:12;;;;;;;9.18;5.80;;;;;;;;;;5114451;28;20024;-70
2021/07/15 12:15:39;;;;;;;8.45;6.07;;;;;;;;;;5113951;28;20019;-70
2021/07/15 12:18:21;;;;;;;12.77;6.00;;;;;;;;;;5114048;28;20091;-70
2021/07/15 12:20:49;;;;;;;11.85;6.53;;;;;;;;;;5113880;28;20038;-70
2021/07/15 12:23:15;;;;;;;9.25;6.18;;;;;;;;;;5114157;28;20039;-70
2021/07/15 12:25:43;;;;;;;10.95;5.88;;;;;;;;;;5112798;28;20483;-70
2021/07/15 12:28:10;;;;;;;9.95;5.70;;;;;;;;;;5112502;28;20132;-70
2021/07/15 12:30:40;;;;;;;10.10;5.97;;;;;;;;;;5114159;28;20024;-70
2021/07/15 12:33:07;;;;;;;8.80;5.75;;;;;;;;;;5114017;28;20054;-70
2021/07/15 12:35:34;;;;;;;9.25;5.72;;;;;;;;;;5113348;28;20629;-71
2021/07/15 12:38:16;;;;;;;11.93;5.65;;;;;;;;;;5113994;28;20024;-70
2021/07/15 12:40:42;;;;;;;11.32;6.03;;;;;;;;;;5114080;28;20027;-70
2021/07/15 12:43:19;;;;;;;11.70;5.72;;;;;;;;;;5107221;28;20047;-70
2021/07/15 12:45:50;;;;;;;7.60;5.07;;;;;;;;;;5111483;28;20027;-70
2021/07/15 12:48:17;;;;;;;9.18;6.50;;;;;;;;;;5113899;28;20103;-70
2021/07/15 12:50:44;;;;;;;9.77;5.90;;;;;;;;;;5112761;28;20051;-71
2021/07/15 12:53:15;;;;;;;9.88;5.32;;;;;;;;;;5113412;28;20047;-70
2021/07/15 12:55:42;;;;;;;9.55;5.45;;;;;;;;;;5112593;28;20395;-71
2021/07/15 12:58:08;;;;;;;8.70;5.53;;;;;;;;;;5111052;28;20028;-70
2021/07/15 13:00:35;;;;;;;8.77;5.95;;;;;;;;;;5112841;28;20047;-70
2021/07/15 13:03:03;;;;;;;11.75;5.88;;;;;;;;;;5111624;28;20044;-69
2021/07/15 13:05:30;;;;;;;9.15;5.57;;;;;;;;;;5113147;28;20019;-70
2021/07/15 13:07:57;;;;;;;9.15;5.63;;;;;;;;;;5112042;28;20102;-69
2021/07/15 13:10:39;;;;;;;8.05;5.75;;;;;;;;;;5112524;28;20023;-69
2021/07/15 13:15:54;;;;;;;9.23;5.25;;;;;;;;;;5111458;28;20035;-69
2021/07/15 13:18:25;;;;;;;9.25;5.95;;;;;;;;;;5111527;28;20020;-70
2021/07/15 13:20:52;;;;;;;8.07;5.53;;;;;;;;;;5111595;28;20502;-70
2021/07/15 13:23:18;;;;;;;8.52;5.25;;;;;;;;;;5112711;28;20036;-70
2021/07/15 13:25:49;;;;;;;8.90;5.00;;;;;;;;;;5112895;28;20099;-70
2021/07/15 13:28:16;;;;;;;10.27;5.65;;;;;;;;;;5113307;28;20020;-69
2021/07/15 13:30:43;;;;;;;10.15;5.97;;;;;;;;;;5112305;28;20034;-70
2021/07/15 13:33:22;;;;;;;10.35;5.60;;;;;;;;;;5110921;28;20027;-68
2021/07/15 13:35:49;;;;;;;7.90;5.18;;;;;;;;;;5111081;28;20479;-70
2021/07/15 13:38:16;;;;;;;10.13;6.22;;;;;;;;;;5110485;28;20023;-69
2021/07/15 13:40:43;;;;;;;7.32;5.22;;;;;;;;;;5110969;28;20047;-69
2021/07/15 13:43:26;;;;;;;6.70;4.63;;;;;;;;;;5109526;28;20466;-70
2021/07/15 13:45:53;;;;;;;10.57;4.78;;;;;;;;;;5110745;28;20016;-69
2021/07/15 13:48:27;;;;;;;8.23;5.85;;;;;;;;;;5112982;28;20105;-69
2021/07/15 13:51:00;;;;;;;11.07;5.57;;;;;;;;;;5112906;28;20016;-70
2021/07/15 13:53:27;;;;;;;8.77;5.38;;;;;;;;;;5112471;28;20028;-70
2021/07/15 13:55:54;;;;;;;7.72;4.50;;;;;;;;;;5112902;28;20030;-70
2021/07/15 13:58:21;;;;;;;8.95;5.60;;;;;;;;;;5111448;28;20391;-69
2021/07/15 14:00:51;;;;;;;9.10;5.18;;;;;;;;;;5112105;28;20402;-71
2021/07/15 14:03:18;;;;;;;8.53;5.13;;;;;;;;;;5113641;28;20043;-69
2021/07/15 14:05:45;;;;;;;10.52;5.32;;;;;;;;;;5116970;28;20259;-70
2021/07/15 14:08:11;;;;;;;8.52;5.05;;;;;;;;;;5116699;28;20028;-70
2021/07/15 14:10:38;;;;;;;7.47;5.22;;;;;;;;;;5116945;28;20047;-70
2021/07/15 14:13:05;;;;;;;8.73;5.07;;;;;;;;;;5116447;28;20103;-70
2021/07/15 14:15:33;;;;;;;8.02;4.93;;;;;;;;;;5116754;28;20027;-70
2021/07/15 14:18:38;;;;;;;8.93;5.18;;;;;;;;;;5115401;28;20043;-70
2021/07/15 14:21:05;;;;;;;8.13;4.82;;;;;;;;;;5053410;28;20029;-69
2021/07/15 14:23:32;;;;;;;9.13;5.05;;;;;;;;;;5036854;28;20108;-70
2021/07/15 14:26:03;;;;;;;8.18;5.05;;;;;;;;;;5084580;28;20517;-70
2021/07/15 14:28:29;;;;;;;8.40;5.05;;;;;;;;;;5116412;28;20492;-70
2021/07/15 14:30:56;;;;;;;11.13;6.22;;;;;;;;;;5116534;28;20051;-69
2021/07/15 14:33:22;;;;;;;14.85;5.60;;;;;;;;;;5116427;28;20034;-68
2021/07/15 14:35:51;;;;;;;8.30;5.18;;;;;;;;;;5115925;28;20099;-69
2021/07/15 14:38:18;;;;;;;8.30;4.97;;;;;;;;;;5116304;28;20023;-68
2021/07/15 14:40:44;;;;;;;9.63;5.57;;;;;;;;;;5115050;28;20023;-70
2021/07/15 14:43:12;;;;;;;9.02;5.93;;;;;;;;;;5115576;28;20510;-69
2021/07/15 14:45:38;;;;;;;10.05;5.75;;;;;;;;;;5116184;28;20031;-69
2021/07/15 14:48:06;;;;;;;9.27;5.88;;;;;;;;;;5114385;28;20468;-70
2021/07/15 14:50:32;;;;;;;7.60;5.47;;;;;;;;;;5116138;28;20032;-70
2021/07/15 14:52:58;;;;;;;10.63;5.57;;;;;;;;;;5116036;28;20051;-69
2021/07/15 14:55:25;;;;;;;9.57;6.70;;;;;;;;;;5115582;28;20024;-70
2021/07/15 14:57:52;;;;;;;7.18;5.30;;;;;;;;;;5115918;28;20015;-70
2021/07/15 15:00:19;;;;;;;9.15;6.10;;;;;;;;;;5114549;28;20459;-69